createdAt,value
2018-11-06T00:01:27.408Z,22.33
2018-11-06T00:04:00.872Z,23.03
2018-11-06T00:06:29.047Z,22.33
2018-11-06T00:08:57.196Z,21.60
2018-11-06T00:11:25.425Z,21.50
2018-11-06T00:13:53.781Z,17.60
2018-11-06T00:16:22.264Z,19.37
2018-11-06T00:18:50.901Z,16.83
2018-11-06T00:21:19.290Z,19.70
2018-11-06T00:23:47.841Z,18.45
2018-11-06T00:26:16.081Z,21.80
2018-11-06T00:28:44.491Z,20.70
2018-11-06T00:31:12.807Z,20.77
2018-11-06T00:33:41.040Z,21.30
2018-11-06T00:36:09.192Z,19.87
2018-11-06T00:38:37.398Z,18.83
2018-11-06T00:41:05.555Z,16.90
2018-11-06T00:43:33.687Z,19.13
2018-11-06T00:46:01.862Z,20.73
2018-11-06T00:48:30.028Z,19.37
2018-11-06T00:50:58.204Z,22.73
2018-11-06T00:53:26.677Z,19.50
2018-11-06T00:55:54.866Z,21.43
2018-11-06T00:58:23.031Z,20.32
2018-11-06T01:00:51.298Z,20.33
2018-11-06T01:03:19.585Z,17.70
2018-11-06T01:05:47.721Z,18.97
2018-11-06T01:08:15.922Z,19.40
2018-11-06T01:10:44.159Z,18.17
2018-11-06T01:13:12.347Z,18.43
2018-11-06T01:15:40.592Z,21.97
2018-11-06T01:18:08.778Z,20.20
2018-11-06T01:20:36.981Z,19.40
2018-11-06T01:23:05.172Z,19.73
2018-11-06T01:25:33.349Z,17.30
2018-11-06T01:28:01.742Z,19.50
2018-11-06T01:30:30.080Z,19.87
2018-11-06T01:32:58.403Z,20.55
2018-11-06T01:35:26.657Z,18.23
2018-11-06T01:37:54.825Z,18.43
2018-11-06T01:40:22.982Z,19.30
2018-11-06T01:42:51.155Z,22.23
2018-11-06T01:45:19.958Z,16.77
2018-11-06T01:47:48.237Z,17.17
2018-11-06T01:50:17.564Z,20.00
2018-11-06T01:52:46.724Z,19.77
2018-11-06T01:55:14.926Z,17.50
2018-11-06T01:57:43.123Z,19.00
2018-11-06T02:00:13.808Z,18.67
2018-11-06T02:02:42.112Z,18.10
2018-11-06T02:05:11.922Z,17.10
2018-11-06T02:07:40.519Z,15.77
2018-11-06T02:10:10.286Z,20.00
2018-11-06T02:12:38.571Z,20.70
2018-11-06T02:15:06.800Z,18.90
2018-11-06T02:17:35.083Z,20.80
2018-11-06T02:20:03.317Z,22.77
2018-11-06T02:22:31.579Z,20.82
2018-11-06T02:24:59.840Z,19.60
2018-11-06T02:27:28.530Z,18.70
2018-11-06T02:29:56.861Z,19.23
2018-11-06T02:32:25.199Z,17.23
2018-11-06T02:34:53.277Z,20.90
2018-11-06T02:37:21.470Z,20.80
2018-11-06T02:39:49.648Z,17.57
2018-11-06T02:42:17.859Z,19.50
2018-11-06T02:44:46.087Z,19.93
2018-11-06T02:47:14.332Z,20.00
2018-11-06T02:49:42.588Z,15.70
2018-11-06T02:52:10.739Z,18.77
2018-11-06T02:54:38.915Z,19.15
2018-11-06T02:57:07.084Z,16.17
2018-11-06T02:59:35.283Z,20.33
2018-11-06T03:02:03.556Z,17.13
2018-11-06T03:04:31.719Z,16.07
2018-11-06T03:06:59.875Z,16.70
2018-11-06T03:09:28.136Z,18.43
2018-11-06T03:11:56.457Z,17.10
2018-11-06T03:14:25.160Z,16.00
2018-11-06T03:16:53.360Z,15.50
2018-11-06T03:19:21.468Z,16.93
2018-11-06T03:21:49.703Z,17.00
2018-11-06T03:24:18.119Z,15.77
2018-11-06T03:26:46.388Z,18.73
2018-11-06T03:29:14.584Z,17.63
2018-11-06T03:31:45.772Z,15.28
2018-11-06T03:34:13.915Z,16.40
2018-11-06T03:36:42.177Z,16.07
2018-11-06T03:39:10.771Z,15.30
2018-11-06T03:41:38.948Z,15.63
2018-11-06T03:44:07.843Z,17.30
2018-11-06T03:46:36.020Z,17.63
2018-11-06T03:49:04.498Z,20.23
2018-11-06T03:51:32.670Z,17.57
2018-11-06T03:54:00.862Z,16.93
2018-11-06T03:56:29.167Z,17.50
2018-11-06T03:58:57.318Z,18.83
2018-11-06T04:01:25.495Z,18.73
2018-11-06T04:03:54.011Z,21.10
2018-11-06T04:06:22.539Z,17.03
2018-11-06T04:08:50.665Z,19.73
2018-11-06T04:11:18.843Z,12.80
2018-11-06T04:13:47.263Z,16.30
2018-11-06T04:16:15.419Z,15.75
2018-11-06T04:18:43.569Z,13.93
2018-11-06T04:21:11.793Z,14.47
2018-11-06T04:23:40.060Z,14.00
2018-11-06T04:26:08.463Z,10.83
2018-11-06T04:28:36.634Z,14.55
2018-11-06T04:31:04.857Z,14.23
2018-11-06T04:33:33.061Z,16.10
2018-11-06T04:36:01.242Z,17.57
2018-11-06T04:38:29.515Z,16.40
2018-11-06T04:40:58.204Z,16.00
2018-11-06T04:43:26.394Z,13.53
2018-11-06T04:45:54.545Z,16.13
2018-11-06T04:48:22.756Z,15.97
2018-11-06T04:50:51.077Z,14.07
2018-11-06T04:53:19.586Z,17.67
2018-11-06T04:55:48.018Z,14.53
2018-11-06T04:58:16.271Z,13.10
2018-11-06T05:00:44.477Z,14.50
2018-11-06T05:03:12.608Z,11.97
2018-11-06T05:05:40.766Z,12.57
2018-11-06T05:08:09.099Z,12.40
2018-11-06T05:10:37.224Z,10.77
2018-11-06T05:13:05.508Z,11.57
2018-11-06T05:15:33.663Z,16.53
2018-11-06T05:18:01.837Z,12.83
2018-11-06T05:20:29.996Z,14.38
2018-11-06T05:22:59.171Z,14.03
2018-11-06T05:25:27.504Z,15.47
2018-11-06T05:27:55.611Z,12.97
2018-11-06T05:30:23.883Z,13.70
2018-11-06T05:32:52.093Z,16.80
2018-11-06T05:35:20.289Z,17.20
2018-11-06T05:37:48.545Z,12.73
2018-11-06T05:40:28.041Z,13.27
2018-11-06T05:42:56.280Z,13.63
2018-11-06T05:45:24.514Z,15.10
2018-11-06T05:47:52.630Z,15.50
2018-11-06T05:50:20.986Z,15.03
2018-11-06T05:52:49.160Z,14.57
2018-11-06T05:55:17.432Z,15.23
2018-11-06T05:57:45.691Z,12.77
2018-11-06T06:00:14.040Z,15.10
2018-11-06T06:02:42.512Z,15.90
2018-11-06T06:05:10.659Z,16.23
2018-11-06T06:07:38.833Z,15.10
2018-11-06T06:10:07.417Z,15.73
2018-11-06T06:12:36.205Z,16.20
2018-11-06T06:15:04.560Z,17.07
2018-11-06T06:17:32.815Z,16.30
2018-11-06T06:20:01.032Z,15.93
2018-11-06T06:22:29.333Z,15.43
2018-11-06T06:24:57.511Z,14.43
2018-11-06T06:27:25.715Z,12.50
2018-11-06T06:29:54.184Z,13.95
2018-11-06T06:32:22.613Z,15.07
2018-11-06T06:34:50.885Z,13.20
2018-11-06T06:37:19.119Z,14.80
2018-11-06T06:39:47.268Z,15.40
2018-11-06T06:42:15.371Z,14.83
2018-11-06T06:44:43.720Z,17.83
2018-11-06T06:47:12.128Z,17.03
2018-11-06T06:49:40.307Z,14.87
2018-11-06T06:52:08.491Z,14.30
2018-11-06T06:54:36.937Z,13.10
2018-11-06T06:57:04.904Z,14.90
2018-11-06T06:59:33.059Z,15.60
2018-11-06T07:02:01.967Z,21.93
2018-11-06T07:04:30.335Z,24.03
2018-11-06T07:06:58.631Z,18.13
2018-11-06T07:09:26.941Z,19.85
2018-11-06T07:11:55.129Z,19.60
2018-11-06T07:14:23.378Z,23.60
2018-11-06T07:16:51.848Z,21.20
2018-11-06T07:19:20.134Z,18.37
2018-11-06T07:21:48.284Z,18.82
2018-11-06T07:24:16.617Z,21.30
2018-11-06T07:26:44.792Z,19.00
2018-11-06T07:29:12.949Z,22.50
2018-11-06T07:31:41.358Z,23.97
2018-11-06T07:34:09.817Z,24.30
2018-11-06T07:36:37.980Z,21.23
2018-11-06T07:39:08.574Z,22.80
2018-11-06T07:41:36.832Z,20.13
2018-11-06T07:44:05.339Z,18.03
2018-11-06T07:46:33.668Z,13.97
2018-11-06T07:49:01.948Z,15.80
2018-11-06T07:51:30.189Z,14.43
2018-11-06T07:53:58.550Z,19.97
2018-11-06T07:56:26.677Z,15.70
2018-11-06T07:58:54.858Z,23.10
2018-11-06T08:01:22.999Z,24.10
2018-11-06T08:03:51.176Z,23.23
2018-11-06T08:06:19.444Z,21.37
2018-11-06T08:08:47.530Z,20.50
2018-11-06T08:11:15.684Z,19.73
2018-11-06T08:13:43.842Z,18.82
2018-11-06T08:16:12.197Z,19.37
2018-11-06T08:18:40.342Z,18.70
2018-11-06T08:21:08.490Z,17.70
2018-11-06T08:23:36.669Z,18.20
2018-11-06T08:26:05.435Z,16.90
2018-11-06T08:28:34.464Z,16.82
2018-11-06T08:31:02.876Z,16.00
2018-11-06T08:33:31.060Z,16.63
2018-11-06T08:35:59.283Z,16.07
2018-11-06T08:38:27.633Z,16.83
2018-11-06T08:40:55.815Z,14.13
2018-11-06T08:43:23.982Z,16.87
2018-11-06T08:45:52.162Z,14.27
2018-11-06T08:48:20.762Z,15.23
2018-11-06T08:50:48.921Z,12.53
2018-11-06T08:53:17.127Z,11.50
2018-11-06T08:55:45.331Z,13.80
2018-11-06T08:58:13.567Z,15.53
2018-11-06T09:00:41.906Z,13.40
2018-11-06T09:03:10.152Z,12.00
2018-11-06T09:05:38.295Z,12.17
2018-11-06T09:08:06.563Z,12.68
2018-11-06T09:10:34.700Z,10.40
2018-11-06T09:13:02.921Z,10.17
2018-11-06T09:15:31.136Z,11.50
2018-11-06T09:17:59.292Z,12.00
2018-11-06T09:20:27.606Z,10.57
2018-11-06T09:22:55.755Z,10.17
2018-11-06T09:25:23.921Z,10.33
2018-11-06T09:27:52.256Z,11.35
2018-11-06T09:30:20.636Z,9.63
2018-11-06T09:32:48.875Z,8.23
2018-11-06T09:35:17.584Z,10.10
2018-11-06T09:37:46.079Z,9.80
2018-11-06T09:40:15.819Z,10.33
2018-11-06T09:42:44.587Z,10.27
2018-11-06T09:45:13.499Z,12.63
2018-11-06T09:47:41.752Z,9.30
2018-11-06T09:50:12.443Z,8.83
2018-11-06T09:52:40.840Z,10.27
2018-11-06T09:55:09.191Z,10.83
2018-11-06T09:57:37.603Z,10.20
2018-11-06T10:00:08.685Z,9.47
2018-11-06T10:02:37.704Z,10.43
2018-11-06T10:05:06.920Z,11.13
2018-11-06T10:07:35.288Z,10.07
2018-11-06T10:10:03.491Z,11.53
2018-11-06T10:12:31.640Z,12.23
2018-11-06T10:14:59.820Z,9.68
2018-11-06T10:17:28.249Z,8.73
2018-11-06T10:19:56.628Z,9.40
2018-11-06T10:22:24.832Z,10.50
2018-11-06T10:24:53.238Z,11.40
2018-11-06T10:27:21.694Z,11.83
2018-11-06T10:29:49.875Z,10.70
2018-11-06T10:32:18.404Z,11.57
2018-11-06T10:34:46.608Z,10.93
2018-11-06T10:37:14.871Z,10.43
2018-11-06T10:39:43.054Z,10.47
2018-11-06T10:42:11.247Z,11.30
2018-11-06T10:44:39.431Z,8.00
2018-11-06T10:47:07.580Z,9.90
2018-11-06T10:49:35.739Z,10.93
2018-11-06T10:52:03.952Z,10.17
2018-11-06T10:54:32.103Z,9.95
2018-11-06T10:57:00.295Z,10.30
2018-11-06T10:59:28.569Z,10.70
2018-11-06T11:02:02.054Z,9.17
2018-11-06T11:04:31.032Z,6.07
2018-11-06T11:06:59.592Z,7.80
2018-11-06T11:09:27.936Z,6.87
2018-11-06T11:11:56.091Z,6.80
2018-11-06T11:14:24.454Z,7.33
2018-11-06T11:16:52.658Z,6.17
2018-11-06T11:19:20.804Z,6.80
2018-11-06T11:21:48.987Z,6.70
2018-11-06T11:24:17.259Z,7.65
2018-11-06T11:26:45.472Z,7.03
2018-11-06T11:29:13.755Z,6.93
2018-11-06T11:31:41.954Z,8.13
2018-11-06T11:34:10.752Z,6.70
2018-11-06T11:36:38.872Z,7.70
2018-11-06T11:39:07.822Z,8.17
2018-11-06T11:41:36.013Z,7.80
2018-11-06T11:44:04.351Z,8.23
2018-11-06T11:46:32.595Z,8.40
2018-11-06T11:49:00.843Z,7.57
2018-11-06T11:51:29.360Z,8.17
2018-11-06T11:53:57.761Z,7.87
2018-11-06T11:56:25.998Z,8.27
2018-11-06T11:58:54.171Z,8.50
2018-11-06T12:01:22.331Z,8.53
2018-11-06T12:03:50.509Z,8.40
2018-11-06T12:06:18.733Z,7.53
2018-11-06T12:08:47.181Z,8.40
2018-11-06T12:11:15.503Z,7.50
2018-11-06T12:13:43.734Z,8.50
2018-11-06T12:16:12.301Z,8.60
2018-11-06T12:18:40.549Z,7.63
2018-11-06T12:21:08.768Z,8.27
2018-11-06T12:23:37.028Z,8.43
2018-11-06T12:26:05.486Z,8.07
2018-11-06T12:28:33.688Z,8.27
2018-11-06T12:31:01.879Z,8.33
2018-11-06T12:33:30.195Z,7.87
2018-11-06T12:35:58.652Z,7.13
2018-11-06T12:38:27.142Z,9.33
2018-11-06T12:40:55.660Z,7.50
2018-11-06T12:43:23.857Z,8.33
2018-11-06T12:45:52.019Z,7.90
2018-11-06T12:48:20.251Z,7.17
2018-11-06T12:50:48.496Z,6.83
2018-11-06T12:53:16.713Z,7.97
2018-11-06T12:55:44.839Z,5.70
2018-11-06T12:58:13.927Z,5.87
2018-11-06T13:00:42.152Z,6.20
2018-11-06T13:03:10.996Z,6.07
2018-11-06T13:05:39.287Z,5.90
2018-11-06T13:08:07.459Z,6.10
2018-11-06T13:10:35.709Z,6.63
2018-11-06T13:13:03.909Z,3.80
2018-11-06T13:15:32.118Z,5.30
2018-11-06T13:18:00.213Z,6.33
2018-11-06T13:20:28.688Z,5.20
2018-11-06T13:22:57.406Z,7.87
2018-11-06T13:25:25.797Z,15.17
2018-11-06T13:27:54.204Z,7.47
2018-11-06T13:30:22.337Z,6.77
2018-11-06T13:32:50.535Z,6.40
2018-11-06T13:35:18.718Z,10.13
2018-11-06T13:37:47.165Z,8.63
2018-11-06T13:40:16.328Z,6.80
2018-11-06T13:42:45.095Z,6.85
2018-11-06T13:45:15.977Z,6.90
2018-11-06T13:47:44.405Z,8.33
2018-11-06T13:50:12.781Z,6.40
2018-11-06T13:52:40.943Z,7.55
2018-11-06T13:55:10.525Z,7.93
2018-11-06T13:57:38.730Z,8.43
2018-11-06T14:00:10.932Z,9.17
2018-11-06T14:02:39.069Z,8.20
2018-11-06T14:05:07.349Z,7.07
2018-11-06T14:07:35.725Z,8.03
2018-11-06T14:10:03.988Z,7.10
2018-11-06T14:12:32.508Z,6.60
2018-11-06T14:15:01.028Z,7.97
2018-11-06T14:17:29.352Z,8.63
2018-11-06T14:19:57.577Z,10.00
2018-11-06T14:22:25.731Z,7.47
2018-11-06T14:24:54.218Z,5.80
2018-11-06T14:27:22.670Z,6.88
2018-11-06T14:29:50.871Z,9.43
2018-11-06T14:32:19.677Z,8.60
2018-11-06T14:34:47.928Z,7.00
2018-11-06T14:37:16.149Z,8.03
2018-11-06T14:39:44.608Z,8.33
2018-11-06T14:42:12.833Z,7.73
2018-11-06T14:44:41.278Z,6.53
2018-11-06T14:47:09.733Z,6.30
2018-11-06T14:49:37.926Z,8.03
2018-11-06T14:52:06.663Z,7.10
2018-11-06T14:54:35.260Z,7.07
2018-11-06T14:57:03.622Z,6.57
2018-11-06T14:59:31.870Z,8.70
2018-11-06T15:02:00.073Z,7.33
2018-11-06T15:04:28.256Z,8.70
2018-11-06T15:06:56.485Z,9.50
2018-11-06T15:09:24.724Z,8.30
2018-11-06T15:11:53.016Z,7.80
2018-11-06T15:14:21.163Z,8.23
2018-11-06T15:16:49.748Z,5.83
2018-11-06T15:19:18.233Z,7.10
2018-11-06T15:21:46.543Z,6.07
2018-11-06T15:24:15.009Z,9.53
2018-11-06T15:26:43.384Z,8.93
2018-11-06T15:29:11.708Z,11.40
2018-11-06T15:31:39.880Z,9.43
2018-11-06T15:34:08.297Z,8.85
2018-11-06T15:36:36.500Z,9.13
2018-11-06T15:39:07.759Z,8.63
2018-11-06T15:41:36.360Z,9.57
2018-11-06T15:44:04.980Z,8.60
2018-11-06T15:46:33.165Z,9.07
2018-11-06T15:49:01.405Z,10.77
2018-11-06T15:51:29.851Z,9.40
2018-11-06T15:53:58.272Z,7.90
2018-11-06T15:56:26.635Z,8.73
2018-11-06T15:58:55.263Z,9.57
2018-11-06T16:01:24.476Z,8.43
2018-11-06T16:03:52.676Z,9.73
2018-11-06T16:06:21.729Z,12.50
2018-11-06T16:08:50.771Z,16.17
2018-11-06T16:11:19.225Z,15.70
2018-11-06T16:13:47.506Z,17.87
2018-11-06T16:16:15.816Z,19.37
2018-11-06T16:18:43.980Z,19.80
2018-11-06T16:21:12.168Z,20.10
2018-11-06T16:23:40.404Z,18.40
2018-11-06T16:26:08.642Z,17.83
2018-11-06T16:28:36.847Z,18.10
2018-11-06T16:31:05.133Z,19.00
2018-11-06T16:33:33.300Z,17.90
2018-11-06T16:36:01.566Z,16.63
2018-11-06T16:38:29.943Z,19.23
2018-11-06T16:40:58.488Z,19.07
2018-11-06T16:43:26.703Z,21.20
2018-11-06T16:45:54.899Z,23.43
2018-11-06T16:48:23.950Z,20.10
2018-11-06T16:50:52.822Z,19.50
2018-11-06T16:53:21.289Z,18.27
2018-11-06T16:55:49.962Z,19.87
2018-11-06T16:58:18.117Z,21.33
2018-11-06T17:00:46.389Z,19.93
2018-11-06T17:03:14.872Z,20.17
2018-11-06T17:05:43.773Z,20.32
2018-11-06T17:08:12.021Z,19.97
2018-11-06T17:10:40.251Z,18.60
2018-11-06T17:13:08.397Z,19.23
2018-11-06T17:15:36.541Z,20.83
2018-11-06T17:18:05.052Z,22.03
2018-11-06T17:20:33.200Z,18.00
2018-11-06T17:23:01.427Z,19.87
2018-11-06T17:25:29.597Z,15.83
2018-11-06T17:27:57.983Z,17.33
2018-11-06T17:30:26.139Z,17.95
2018-11-06T17:32:54.398Z,15.43
2018-11-06T17:35:22.591Z,16.17
2018-11-06T17:37:50.768Z,14.60
2018-11-06T17:40:19.952Z,13.43
2018-11-06T17:42:48.123Z,14.73
2018-11-06T17:45:17.826Z,13.40
2018-11-06T17:47:52.659Z,11.73
2018-11-06T17:50:20.814Z,13.50
2018-11-06T17:52:48.981Z,13.73
2018-11-06T17:55:18.758Z,13.87
2018-11-06T17:57:46.889Z,13.03
2018-11-06T18:00:18.208Z,11.63
2018-11-06T18:02:46.686Z,11.20
2018-11-06T18:05:15.782Z,13.13
2018-11-06T18:07:44.402Z,14.58
2018-11-06T18:10:14.110Z,12.30
2018-11-06T18:12:42.303Z,12.70
2018-11-06T18:15:10.465Z,13.23
2018-11-06T18:17:39.329Z,9.67
2018-11-06T18:20:08.630Z,13.40
2018-11-06T18:22:36.764Z,13.00
2018-11-06T18:25:05.320Z,11.53
2018-11-06T18:27:33.496Z,13.87
2018-11-06T18:30:01.680Z,15.07
2018-11-06T18:32:30.075Z,14.10
2018-11-06T18:34:58.432Z,12.03
2018-11-06T18:37:26.599Z,13.80
2018-11-06T18:39:54.749Z,11.25
2018-11-06T18:42:22.933Z,12.17
2018-11-06T18:44:51.105Z,14.43
2018-11-06T18:47:19.294Z,11.90
2018-11-06T18:49:47.611Z,14.20
2018-11-06T18:52:15.741Z,13.70
2018-11-06T18:54:43.940Z,15.20
2018-11-06T18:57:12.151Z,12.82
2018-11-06T18:59:40.619Z,13.47
2018-11-06T19:02:08.753Z,14.23
2018-11-06T19:04:37.077Z,14.07
2018-11-06T19:07:05.856Z,13.80
2018-11-06T19:09:34.081Z,13.80
2018-11-06T19:12:02.272Z,14.23
2018-11-06T19:14:30.520Z,12.30
2018-11-06T19:16:59.003Z,12.00
2018-11-06T19:19:27.163Z,11.07
2018-11-06T19:21:55.491Z,12.70
2018-11-06T19:24:23.651Z,11.87
2018-11-06T19:26:51.933Z,11.65
2018-11-06T19:29:20.123Z,10.72
2018-11-06T19:31:48.286Z,11.50
2018-11-06T19:34:16.499Z,11.80
2018-11-06T19:36:44.803Z,11.90
2018-11-06T19:39:13.415Z,12.20
2018-11-06T19:41:42.022Z,9.80
2018-11-06T19:44:10.507Z,10.90
2018-11-06T19:46:38.767Z,12.73
2018-11-06T19:49:07.245Z,12.30
2018-11-06T19:51:35.760Z,12.23
2018-11-06T19:54:04.103Z,12.07
2018-11-06T19:56:32.261Z,19.00
2018-11-06T19:59:00.616Z,15.20
2018-11-06T20:01:28.888Z,16.40
2018-11-06T20:03:57.223Z,18.83
2018-11-06T20:06:25.377Z,20.67
2018-11-06T20:08:53.548Z,18.87
2018-11-06T20:11:21.738Z,18.67
2018-11-06T20:13:49.931Z,20.20
2018-11-06T20:16:18.231Z,17.70
2018-11-06T20:18:46.686Z,15.47
2018-11-06T20:21:14.881Z,17.20
2018-11-06T20:23:43.093Z,16.17
2018-11-06T20:26:11.243Z,16.90
2018-11-06T20:28:39.458Z,16.87
2018-11-06T20:31:07.810Z,13.38
2018-11-06T20:33:36.064Z,13.13
2018-11-06T20:36:04.304Z,11.47
2018-11-06T20:38:32.556Z,10.37
2018-11-06T20:41:01.075Z,11.20
2018-11-06T20:43:29.559Z,11.23
2018-11-06T20:45:57.844Z,9.87
2018-11-06T20:48:26.070Z,13.63
2018-11-06T20:50:54.334Z,13.27
2018-11-06T20:53:22.596Z,13.43
2018-11-06T20:55:50.910Z,14.23
2018-11-06T20:58:18.980Z,16.00
2018-11-06T21:00:47.396Z,14.53
2018-11-06T21:03:15.653Z,13.90
2018-11-06T21:05:43.965Z,14.57
2018-11-06T21:08:12.231Z,13.43
2018-11-06T21:10:40.406Z,13.60
2018-11-06T21:13:08.603Z,14.00
2018-11-06T21:15:36.810Z,15.80
2018-11-06T21:18:05.219Z,16.40
2018-11-06T21:20:33.290Z,18.90
2018-11-06T21:23:02.382Z,16.65
2018-11-06T21:25:30.741Z,16.50
2018-11-06T21:27:59.010Z,18.30
2018-11-06T21:30:27.192Z,18.93
2018-11-06T21:32:55.432Z,17.60
2018-11-06T21:35:23.672Z,14.07
2018-11-06T21:37:52.013Z,16.60
2018-11-06T21:40:21.283Z,15.90
2018-11-06T21:42:49.837Z,16.37
2018-11-06T21:45:18.900Z,15.37
2018-11-06T21:47:47.968Z,15.10
2018-11-06T21:50:16.996Z,17.10
2018-11-06T21:52:45.214Z,17.30
2018-11-06T21:55:14.776Z,15.47
2018-11-06T21:57:43.135Z,19.37
2018-11-06T22:02:37.703Z,16.42
2018-11-06T22:05:07.552Z,16.20
2018-11-06T22:07:35.684Z,14.60
2018-11-06T22:10:04.157Z,11.57
2018-11-06T22:12:32.500Z,13.33
2018-11-06T22:15:00.636Z,15.13
2018-11-06T22:17:28.794Z,12.95
2018-11-06T22:19:57.035Z,10.63
2018-11-06T22:22:25.242Z,13.23
2018-11-06T22:24:53.436Z,10.63
2018-11-06T22:27:28.281Z,14.90
2018-11-06T22:29:56.560Z,12.70
2018-11-06T22:32:24.772Z,14.00
2018-11-06T22:34:52.975Z,14.07
2018-11-06T22:37:21.164Z,15.33
2018-11-06T22:39:49.349Z,14.87
2018-11-06T22:42:17.647Z,16.32
2018-11-06T22:44:45.819Z,15.73
2018-11-06T22:47:13.990Z,14.43
2018-11-06T22:49:42.298Z,15.07
2018-11-06T22:52:10.668Z,15.67
2018-11-06T22:54:38.876Z,16.93
2018-11-06T22:57:07.054Z,17.60
2018-11-06T22:59:35.257Z,15.53
2018-11-06T23:02:03.548Z,15.60
2018-11-06T23:04:31.703Z,19.53
2018-11-06T23:07:00.057Z,16.03
2018-11-06T23:09:28.263Z,16.97
2018-11-06T23:11:56.689Z,17.90
2018-11-06T23:14:24.972Z,15.70
2018-11-06T23:16:53.151Z,17.57
2018-11-06T23:19:21.680Z,14.30
2018-11-06T23:21:50.116Z,17.67
2018-11-06T23:24:18.384Z,17.17
2018-11-06T23:26:46.599Z,19.13
2018-11-06T23:29:14.771Z,20.50
2018-11-06T23:31:43.066Z,21.35
2018-11-06T23:34:11.163Z,18.23
2018-11-06T23:36:39.380Z,21.47
2018-11-06T23:39:07.926Z,19.80
2018-11-06T23:41:36.823Z,21.70
2018-11-06T23:44:05.248Z,20.43
2018-11-06T23:46:33.482Z,23.67
2018-11-06T23:49:01.612Z,22.35
2018-11-06T23:51:29.945Z,20.20
2018-11-06T23:53:58.197Z,19.17
2018-11-06T23:56:26.536Z,14.80
2018-11-06T23:58:54.749Z,20.87
